Lucia De Jesus — CUKL3 — position and weather

sailwx.info

Track history (hours):
 
Tides and Currents Weather Stations Pressure Air Temp Water Temp Dewpoint Dewpoint Depression Visibility Wind Speed Wind Dir Waves Ship Positions

Lucia De Jesus

Last reported at 2018-May-25 18:26 UTC. Time now 2018-May-25 18:51 UTC.
Position N 38°29' W 009°39'.

Length 16 m.

Type: Fishing. MMSI: 263294000.

Date/timePositionNaut miles runAvg speedWind from/ knotsBaromVisibWave heightAir tempDewpointWater temp
2018-May-25 18:26N 38°29' W 009°39'1 2.3
2018-May-25 17:52N 38°28' W 009°39'4 9.0
2018-May-25 17:28N 38°28' W 009°35'4 9.4
2018-May-25 17:00N 38°27' W 009°30'2 3.8
2018-May-25 16:30N 38°26' W 009°27'0 0.6
2018-May-25 15:58N 38°26' W 009°27'0 0.7
2018-May-25 15:30N 38°26' W 009°27'0 0.9
2018-May-25 15:01N 38°25' W 009°27'0 0.7
2018-May-25 14:30N 38°25' W 009°27'0 0.6
2018-May-25 13:57N 38°24' W 009°27'0 0.2
2018-May-25 13:29N 38°24' W 009°27'1 2.7
2018-May-25 13:00N 38°23' W 009°27'3 6.1
2018-May-25 12:30N 38°24' W 009°23'5 9.7
2018-May-25 12:00N 38°24' W 009°17'5 9.9
2018-May-25 11:29N 38°24' W 009°11'4 7.9
2018-May-25 11:01N 38°26' W 009°07'0 0.0
2018-May-24 02:10N 38°26' W 009°07'0 0.5
2018-May-24 02:00N 38°26' W 009°07'1 1.3
2018-May-24 01:30N 38°26' W 009°07'4 9.0
2018-May-24 01:00N 38°24' W 009°12'4 8.7
2018-May-24 00:30N 38°25' W 009°18'4 8.9
2018-May-24 00:00N 38°25' W 009°24'4 7.8
2018-May-23 23:29N 38°26' W 009°29'2 4.7
2018-May-23 22:59N 38°25' W 009°31'3 5.5
2018-May-23 22:22N 38°24' W 009°35'0 0.2
2018-May-23 22:00N 38°24' W 009°35'0 0.5
2018-May-23 21:30N 38°24' W 009°35'0 0.4
2018-May-23 20:57N 38°24' W 009°35'0 0.8
2018-May-23 20:30N 38°24' W 009°34'1 1.0
2018-May-23 19:59N 38°24' W 009°34'1 1.2
2018-May-23 19:26N 38°24' W 009°33'0 1.1
2018-May-23 19:00N 38°25' W 009°32'1 1.1
2018-May-23 18:30N 38°25' W 009°32'1 1.2
2018-May-23 18:00N 38°25' W 009°31'1 1.0
2018-May-23 17:29N 38°26' W 009°31'0 0.8
2018-May-23 16:57N 38°26' W 009°30'0 0.4
2018-May-23 16:24N 38°26' W 009°31'1 3.2
2018-May-23 16:00N 38°27' W 009°29'2 3.7
2018-May-23 15:29N 38°26' W 009°27'1 1.9
2018-May-23 14:50N 38°25' W 009°28'0 0.7
2018-May-23 14:24N 38°25' W 009°27'0 0.3
2018-May-23 13:59N 38°25' W 009°27'0 1.0
2018-May-23 13:30N 38°25' W 009°27'0 0.9
2018-May-23 12:58N 38°26' W 009°27'0 0.3
2018-May-23 12:29N 38°26' W 009°27'0 0.3
2018-May-23 11:39N 38°26' W 009°28'1 4.1
2018-May-23 11:30N 38°26' W 009°27'5 9.6
2018-May-23 11:00N 38°25' W 009°21'510.0
2018-May-23 10:29N 38°24' W 009°15'7 9.6
2018-May-23 09:47N 38°26' W 009°06'0 0.6
2018-May-23 09:26N 38°26' W 009°07'0 0.0
2018-May-23 08:36N 38°26' W 009°07'0 0.0
2018-May-23 08:30N 38°26' W 009°07'0 0.0
2018-May-21 17:48N 38°26' W 009°07'0 0.2
2018-May-21 17:29N 38°26' W 009°07'0 0.7
2018-May-21 17:01N 38°26' W 009°06'6 9.0
2018-May-21 16:22N 38°24' W 009°13'4 9.5
2018-May-21 15:59N 38°25' W 009°18'5 9.4
2018-May-21 15:28N 38°25' W 009°24'4 9.0
2018-May-21 15:01N 38°26' W 009°29'2 4.5
2018-May-21 14:31N 38°25' W 009°32'3 4.7
2018-May-21 13:58N 38°24' W 009°35'1 0.8
2018-May-21 13:22N 38°24' W 009°35'1 2.4
2018-May-21 12:57N 38°24' W 009°34'0 0.2
2018-May-21 12:28N 38°24' W 009°34'0 0.2
2018-May-21 11:57N 38°24' W 009°34'0 0.4
2018-May-21 11:25N 38°24' W 009°34'0 0.6
2018-May-21 10:59N 38°24' W 009°33'0 0.7
2018-May-21 10:29N 38°24' W 009°33'0 0.8
2018-May-21 10:00N 38°25' W 009°32'0 0.9
2018-May-21 09:29N 38°25' W 009°32'1 0.9
2018-May-21 08:39N 38°25' W 009°31'0 0.7
2018-May-21 08:29N 38°25' W 009°31'0 0.5
2018-May-21 08:00N 38°25' W 009°31'0 0.3
2018-May-21 07:30N 38°26' W 009°31'0 0.1
2018-May-21 06:59N 38°26' W 009°31'1 3.1
2018-May-21 06:30N 38°26' W 009°29'2 3.7
2018-May-21 05:58N 38°25' W 009°27'0 0.4
2018-May-21 05:30N 38°25' W 009°27'0 0.8
2018-May-21 05:00N 38°25' W 009°27'0 0.8
2018-May-21 04:30N 38°26' W 009°27'0 0.8
2018-May-21 04:00N 38°26' W 009°27'0 0.7
2018-May-21 03:30N 38°26' W 009°27'0 0.2
2018-May-21 02:59N 38°26' W 009°27'0 0.1
2018-May-21 02:30N 38°27' W 009°27'0 0.1
2018-May-21 01:58N 38°27' W 009°27'2 3.2
2018-May-21 01:30N 38°26' W 009°25'5 8.9
2018-May-21 01:00N 38°25' W 009°20'5 9.1
2018-May-21 00:29N 38°24' W 009°14'6 9.2
2018-May-20 23:52N 38°25' W 009°08'1 3.1
2018-May-20 23:31N 38°26' W 009°07'0 0.0
2018-May-20 23:01N 38°26' W 009°07'0 0.0
2018-May-20 22:29N 38°26' W 009°07'  
2018-May-18 09:39N 38°26' W 009°07'0 0.4
2018-May-18 09:30N 38°26' W 009°07'0 0.1
2018-May-18 08:48N 38°26' W 009°07'3 7.0
2018-May-18 08:26N 38°25' W 009°09'4 8.9
2018-May-18 07:58N 38°24' W 009°15'4 9.1
2018-May-18 07:30N 38°25' W 009°20'5 9.4
2018-May-18 06:59N 38°25' W 009°26'3 6.5
2018-May-18 06:28N 38°26' W 009°31'2 4.8
2018-May-18 05:59N 38°24' W 009°33'2 4.9
2018-May-18 05:30N 38°25' W 009°36'1 1.6
2018-May-18 04:50N 38°24' W 009°35'0 0.6
2018-May-18 04:25N 38°24' W 009°35'0 0.4
2018-May-18 04:00N 38°24' W 009°34'0 0.7
2018-May-18 03:30N 38°24' W 009°34'1 1.0
2018-May-18 02:59N 38°24' W 009°33'1 1.2
2018-May-18 02:28N 38°24' W 009°33'1 1.2
2018-May-18 02:00N 38°25' W 009°32'1 1.2
2018-May-18 01:30N 38°25' W 009°31'0 1.0
2018-May-18 01:00N 38°25' W 009°31'0 0.7
2018-May-18 00:30N 38°25' W 009°30'0 0.1
2018-May-18 00:00N 38°25' W 009°30'1 2.3
2018-May-17 23:30N 38°25' W 009°29'2 3.3
2018-May-17 23:00N 38°26' W 009°27'2 3.7
2018-May-17 22:29N 38°27' W 009°28'1 2.2
2018-May-17 22:00N 38°27' W 009°27'0 0.4
2018-May-17 21:28N 38°27' W 009°27'0 0.7
2018-May-17 21:00N 38°27' W 009°27'0 0.8
2018-May-17 20:30N 38°26' W 009°27'1 1.4
2018-May-17 20:00N 38°26' W 009°27'1 1.4
2018-May-17 19:30N 38°25' W 009°27'1 1.4
2018-May-17 18:59N 38°24' W 009°27'0 1.0
2018-May-17 18:30N 38°24' W 009°27'0 0.7
2018-May-17 17:59N 38°24' W 009°26'4 7.3
2018-May-17 17:29N 38°25' W 009°22'4 9.1
2018-May-17 17:00N 38°25' W 009°16'5 9.1
2018-May-17 16:30N 38°25' W 009°10'3 6.8
2018-May-17 16:00N 38°26' W 009°07'0 0.0
2018-May-17 15:30N 38°26' W 009°07'0 0.0
2018-May-16 18:01N 38°26' W 009°07'0 0.0
2018-May-16 17:59N 38°26' W 009°07'0 0.0
2018-May-16 17:29N 38°26' W 009°07'4 7.7
2018-May-16 17:00N 38°24' W 009°11'5 9.0
2018-May-16 16:30N 38°24' W 009°16'5 9.5
2018-May-16 16:00N 38°25' W 009°23'5 9.6
2018-May-16 15:30N 38°25' W 009°29'3 5.1
2018-May-16 15:00N 38°25' W 009°32'2 4.8
2018-May-16 14:30N 38°24' W 009°35'1 1.9
2018-May-16 13:57N 38°23' W 009°36'0 1.0
2018-May-16 13:30N 38°23' W 009°35'0 0.9
2018-May-16 13:00N 38°24' W 009°35'0 0.6
2018-May-16 12:30N 38°24' W 009°36'0 0.8
2018-May-16 11:59N 38°24' W 009°35'0 0.9
2018-May-16 11:30N 38°24' W 009°34'1 1.2
2018-May-16 10:59N 38°24' W 009°34'1 1.1
2018-May-16 10:28N 38°24' W 009°33'0 0.9
2018-May-16 10:00N 38°25' W 009°33'1 1.0
2018-May-16 09:30N 38°25' W 009°32'0 0.8
2018-May-16 09:00N 38°25' W 009°32'0 0.2
2018-May-16 08:30N 38°25' W 009°31'1 1.9
2018-May-16 07:59N 38°25' W 009°30'3 6.7
2018-May-16 07:30N 38°24' W 009°27'3 5.3
2018-May-16 07:00N 38°27' W 009°27'1 3.0
2018-May-16 06:30N 38°28' W 009°28'1 1.9
2018-May-16 06:00N 38°27' W 009°27'0 0.1
2018-May-16 05:30N 38°27' W 009°28'0 0.9
2018-May-16 05:00N 38°27' W 009°27'0 0.9
2018-May-16 04:30N 38°26' W 009°27'0 0.9
2018-May-16 04:00N 38°26' W 009°27'0 0.9
2018-May-16 03:30N 38°25' W 009°27'0 0.5
2018-May-16 03:00N 38°25' W 009°27'0 0.4
2018-May-16 02:30N 38°25' W 009°27'1 1.4
2018-May-16 02:00N 38°25' W 009°26'5 9.0
2018-May-16 01:28N 38°24' W 009°20'4 9.0
2018-May-16 01:00N 38°24' W 009°15'5 8.9
2018-May-16 00:29N 38°25' W 009°09'2 4.3
2018-May-16 00:00N 38°26' W 009°07'  
Track history (hours):
 
Tides and Currents Weather Stations Pressure Air Temp Water Temp Dewpoint Dewpoint Depression Visibility Wind Speed Wind Dir Waves Ship Positions

Lucia De Jesus

Last reported at 2018-May-25 18:26 UTC. Time now 2018-May-25 18:51 UTC.
Position N 38°29' W 009°39'.

Length 16 m.

Type: Fishing. MMSI: 263294000.

Date/timePositionNaut miles runAvg speedWind from/ knotsBaromVisibWave heightAir tempDewpointWater temp
2018-May-25 18:26N 38°29' W 009°39'1 2.3
2018-May-25 17:52N 38°28' W 009°39'4 9.0
2018-May-25 17:28N 38°28' W 009°35'4 9.4
2018-May-25 17:00N 38°27' W 009°30'2 3.8
2018-May-25 16:30N 38°26' W 009°27'0 0.6
2018-May-25 15:58N 38°26' W 009°27'0 0.7
2018-May-25 15:30N 38°26' W 009°27'0 0.9
2018-May-25 15:01N 38°25' W 009°27'0 0.7
2018-May-25 14:30N 38°25' W 009°27'0 0.6
2018-May-25 13:57N 38°24' W 009°27'0 0.2
2018-May-25 13:29N 38°24' W 009°27'1 2.7
2018-May-25 13:00N 38°23' W 009°27'3 6.1
2018-May-25 12:30N 38°24' W 009°23'5 9.7
2018-May-25 12:00N 38°24' W 009°17'5 9.9
2018-May-25 11:29N 38°24' W 009°11'4 7.9
2018-May-25 11:01N 38°26' W 009°07'0 0.0
2018-May-24 02:10N 38°26' W 009°07'0 0.5
2018-May-24 02:00N 38°26' W 009°07'1 1.3
2018-May-24 01:30N 38°26' W 009°07'4 9.0
2018-May-24 01:00N 38°24' W 009°12'4 8.7
2018-May-24 00:30N 38°25' W 009°18'4 8.9
2018-May-24 00:00N 38°25' W 009°24'4 7.8
2018-May-23 23:29N 38°26' W 009°29'2 4.7
2018-May-23 22:59N 38°25' W 009°31'3 5.5
2018-May-23 22:22N 38°24' W 009°35'0 0.2
2018-May-23 22:00N 38°24' W 009°35'0 0.5
2018-May-23 21:30N 38°24' W 009°35'0 0.4
2018-May-23 20:57N 38°24' W 009°35'0 0.8
2018-May-23 20:30N 38°24' W 009°34'1 1.0
2018-May-23 19:59N 38°24' W 009°34'1 1.2
2018-May-23 19:26N 38°24' W 009°33'0 1.1
2018-May-23 19:00N 38°25' W 009°32'1 1.1
2018-May-23 18:30N 38°25' W 009°32'1 1.2
2018-May-23 18:00N 38°25' W 009°31'1 1.0
2018-May-23 17:29N 38°26' W 009°31'0 0.8
2018-May-23 16:57N 38°26' W 009°30'0 0.4
2018-May-23 16:24N 38°26' W 009°31'1 3.2
2018-May-23 16:00N 38°27' W 009°29'2 3.7
2018-May-23 15:29N 38°26' W 009°27'1 1.9
2018-May-23 14:50N 38°25' W 009°28'0 0.7
2018-May-23 14:24N 38°25' W 009°27'0 0.3
2018-May-23 13:59N 38°25' W 009°27'0 1.0
2018-May-23 13:30N 38°25' W 009°27'0 0.9
2018-May-23 12:58N 38°26' W 009°27'0 0.3
2018-May-23 12:29N 38°26' W 009°27'0 0.3
2018-May-23 11:39N 38°26' W 009°28'1 4.1
2018-May-23 11:30N 38°26' W 009°27'5 9.6
2018-May-23 11:00N 38°25' W 009°21'510.0
2018-May-23 10:29N 38°24' W 009°15'7 9.6
2018-May-23 09:47N 38°26' W 009°06'0 0.6
2018-May-23 09:26N 38°26' W 009°07'0 0.0
2018-May-23 08:36N 38°26' W 009°07'0 0.0
2018-May-23 08:30N 38°26' W 009°07'0 0.0
2018-May-21 17:48N 38°26' W 009°07'0 0.2
2018-May-21 17:29N 38°26' W 009°07'0 0.7
2018-May-21 17:01N 38°26' W 009°06'6 9.0
2018-May-21 16:22N 38°24' W 009°13'4 9.5
2018-May-21 15:59N 38°25' W 009°18'5 9.4
2018-May-21 15:28N 38°25' W 009°24'4 9.0
2018-May-21 15:01N 38°26' W 009°29'2 4.5
2018-May-21 14:31N 38°25' W 009°32'3 4.7
2018-May-21 13:58N 38°24' W 009°35'1 0.8
2018-May-21 13:22N 38°24' W 009°35'1 2.4
2018-May-21 12:57N 38°24' W 009°34'0 0.2
2018-May-21 12:28N 38°24' W 009°34'0 0.2
2018-May-21 11:57N 38°24' W 009°34'0 0.4
2018-May-21 11:25N 38°24' W 009°34'0 0.6
2018-May-21 10:59N 38°24' W 009°33'0 0.7
2018-May-21 10:29N 38°24' W 009°33'0 0.8
2018-May-21 10:00N 38°25' W 009°32'0 0.9
2018-May-21 09:29N 38°25' W 009°32'1 0.9
2018-May-21 08:39N 38°25' W 009°31'0 0.7
2018-May-21 08:29N 38°25' W 009°31'0 0.5
2018-May-21 08:00N 38°25' W 009°31'0 0.3
2018-May-21 07:30N 38°26' W 009°31'0 0.1
2018-May-21 06:59N 38°26' W 009°31'1 3.1
2018-May-21 06:30N 38°26' W 009°29'2 3.7
2018-May-21 05:58N 38°25' W 009°27'0 0.4
2018-May-21 05:30N 38°25' W 009°27'0 0.8
2018-May-21 05:00N 38°25' W 009°27'0 0.8
2018-May-21 04:30N 38°26' W 009°27'0 0.8
2018-May-21 04:00N 38°26' W 009°27'0 0.7
2018-May-21 03:30N 38°26' W 009°27'0 0.2
2018-May-21 02:59N 38°26' W 009°27'0 0.1
2018-May-21 02:30N 38°27' W 009°27'0 0.1
2018-May-21 01:58N 38°27' W 009°27'2 3.2
2018-May-21 01:30N 38°26' W 009°25'5 8.9
2018-May-21 01:00N 38°25' W 009°20'5 9.1
2018-May-21 00:29N 38°24' W 009°14'6 9.2
2018-May-20 23:52N 38°25' W 009°08'1 3.1
2018-May-20 23:31N 38°26' W 009°07'0 0.0
2018-May-20 23:01N 38°26' W 009°07'0 0.0
2018-May-20 22:29N 38°26' W 009°07'  
2018-May-18 09:39N 38°26' W 009°07'0 0.4
2018-May-18 09:30N 38°26' W 009°07'0 0.1
2018-May-18 08:48N 38°26' W 009°07'3 7.0
2018-May-18 08:26N 38°25' W 009°09'4 8.9
2018-May-18 07:58N 38°24' W 009°15'4 9.1
2018-May-18 07:30N 38°25' W 009°20'5 9.4
2018-May-18 06:59N 38°25' W 009°26'3 6.5
2018-May-18 06:28N 38°26' W 009°31'2 4.8
2018-May-18 05:59N 38°24' W 009°33'2 4.9
2018-May-18 05:30N 38°25' W 009°36'1 1.6
2018-May-18 04:50N 38°24' W 009°35'0 0.6
2018-May-18 04:25N 38°24' W 009°35'0 0.4
2018-May-18 04:00N 38°24' W 009°34'0 0.7
2018-May-18 03:30N 38°24' W 009°34'1 1.0
2018-May-18 02:59N 38°24' W 009°33'1 1.2
2018-May-18 02:28N 38°24' W 009°33'1 1.2
2018-May-18 02:00N 38°25' W 009°32'1 1.2
2018-May-18 01:30N 38°25' W 009°31'0 1.0
2018-May-18 01:00N 38°25' W 009°31'0 0.7
2018-May-18 00:30N 38°25' W 009°30'0 0.1
2018-May-18 00:00N 38°25' W 009°30'1 2.3
2018-May-17 23:30N 38°25' W 009°29'2 3.3
2018-May-17 23:00N 38°26' W 009°27'2 3.7
2018-May-17 22:29N 38°27' W 009°28'1 2.2
2018-May-17 22:00N 38°27' W 009°27'0 0.4
2018-May-17 21:28N 38°27' W 009°27'0 0.7
2018-May-17 21:00N 38°27' W 009°27'0 0.8
2018-May-17 20:30N 38°26' W 009°27'1 1.4
2018-May-17 20:00N 38°26' W 009°27'1 1.4
2018-May-17 19:30N 38°25' W 009°27'1 1.4
2018-May-17 18:59N 38°24' W 009°27'0 1.0
2018-May-17 18:30N 38°24' W 009°27'0 0.7
2018-May-17 17:59N 38°24' W 009°26'4 7.3
2018-May-17 17:29N 38°25' W 009°22'4 9.1
2018-May-17 17:00N 38°25' W 009°16'5 9.1
2018-May-17 16:30N 38°25' W 009°10'3 6.8
2018-May-17 16:00N 38°26' W 009°07'0 0.0
2018-May-17 15:30N 38°26' W 009°07'0 0.0
2018-May-16 18:01N 38°26' W 009°07'0 0.0
2018-May-16 17:59N 38°26' W 009°07'0 0.0
2018-May-16 17:29N 38°26' W 009°07'4 7.7
2018-May-16 17:00N 38°24' W 009°11'5 9.0
2018-May-16 16:30N 38°24' W 009°16'5 9.5
2018-May-16 16:00N 38°25' W 009°23'5 9.6
2018-May-16 15:30N 38°25' W 009°29'3 5.1
2018-May-16 15:00N 38°25' W 009°32'2 4.8
2018-May-16 14:30N 38°24' W 009°35'1 1.9
2018-May-16 13:57N 38°23' W 009°36'0 1.0
2018-May-16 13:30N 38°23' W 009°35'0 0.9
2018-May-16 13:00N 38°24' W 009°35'0 0.6
2018-May-16 12:30N 38°24' W 009°36'0 0.8
2018-May-16 11:59N 38°24' W 009°35'0 0.9
2018-May-16 11:30N 38°24' W 009°34'1 1.2
2018-May-16 10:59N 38°24' W 009°34'1 1.1
2018-May-16 10:28N 38°24' W 009°33'0 0.9
2018-May-16 10:00N 38°25' W 009°33'1 1.0
2018-May-16 09:30N 38°25' W 009°32'0 0.8
2018-May-16 09:00N 38°25' W 009°32'0 0.2
2018-May-16 08:30N 38°25' W 009°31'1 1.9
2018-May-16 07:59N 38°25' W 009°30'3 6.7
2018-May-16 07:30N 38°24' W 009°27'3 5.3
2018-May-16 07:00N 38°27' W 009°27'1 3.0
2018-May-16 06:30N 38°28' W 009°28'1 1.9
2018-May-16 06:00N 38°27' W 009°27'0 0.1
2018-May-16 05:30N 38°27' W 009°28'0 0.9
2018-May-16 05:00N 38°27' W 009°27'0 0.9
2018-May-16 04:30N 38°26' W 009°27'0 0.9
2018-May-16 04:00N 38°26' W 009°27'0 0.9
2018-May-16 03:30N 38°25' W 009°27'0 0.5
2018-May-16 03:00N 38°25' W 009°27'0 0.4
2018-May-16 02:30N 38°25' W 009°27'1 1.4
2018-May-16 02:00N 38°25' W 009°26'5 9.0
2018-May-16 01:28N 38°24' W 009°20'4 9.0
2018-May-16 01:00N 38°24' W 009°15'5 8.9
2018-May-16 00:29N 38°25' W 009°09'2 4.3
2018-May-16 00:00N 38°26' W 009°07'  

Dump ship's entire track history